Time;durP1;ratioP1;P1;durP2;ratioP2;P2;SDS_P1;SDS_P2;PMS_P1;PMS_P2;Temp;Humidity;BMP_temperature;BMP_pressure;BME280_temperature;BME280_humidity;BME280_pressure;Samples;Min_cycle;Max_cycle;Signal;HPM_P1;HPM_P2
2024/01/28 00:01:41;;;;;;;0.98;0.98;;;;;;;-5.14;94.31;100211.13;4858805;29;20096;-79
2024/01/28 00:04:10;;;;;;;0.90;0.90;;;;;;;-5.15;94.25;100216.50;4842498;29;20421;-79
2024/01/28 00:06:38;;;;;;;1.00;1.00;;;;;;;-5.16;94.75;100225.34;4858709;29;20053;-80
2024/01/28 00:09:06;;;;;;;0.90;0.90;;;;;;;-5.16;94.92;100220.91;4842128;29;20138;-80
2024/01/28 00:11:33;;;;;;;0.93;0.93;;;;;;;-5.12;95.08;100224.16;4858695;29;20057;-80
2024/01/28 00:14:00;;;;;;;1.00;1.00;;;;;;;-5.15;95.21;100227.84;4858167;29;20509;-80
2024/01/28 00:16:28;;;;;;;1.00;1.00;;;;;;;-5.13;95.40;100233.00;4842115;29;20096;-79
2024/01/28 00:18:58;;;;;;;0.90;0.90;;;;;;;-5.18;95.52;100228.09;4826855;29;20152;-85
2024/01/28 00:21:31;;;;;;;0.80;0.80;;;;;;;-5.21;95.61;100225.69;4858307;29;20148;-85
2024/01/28 00:24:02;;;;;;;1.00;1.00;;;;;;;-5.20;95.90;100229.97;4876720;29;20057;-84
2024/01/28 00:26:29;;;;;;;1.00;1.00;;;;;;;-5.19;95.90;100228.19;4863623;29;20238;-85
2024/01/28 00:28:57;;;;;;;1.05;1.05;;;;;;;-5.24;95.84;100228.56;4841619;29;20513;-86
2024/01/28 00:31:26;;;;;;;1.00;1.00;;;;;;;-5.29;96.04;100230.66;4858427;29;20061;-86
2024/01/28 00:33:53;;;;;;;0.85;0.85;;;;;;;-5.34;96.43;100233.66;4857613;29;20065;-83
2024/01/28 00:36:21;;;;;;;0.80;0.80;;;;;;;-5.32;96.42;100239.59;4857971;29;20080;-84
2024/01/28 00:38:48;;;;;;;1.10;1.10;;;;;;;-5.31;96.65;100229.94;4841902;29;20060;-84
2024/01/28 00:41:23;;;;;;;0.75;0.75;;;;;;;-5.30;96.84;100240.34;4858259;29;20144;-84
2024/01/28 00:43:57;;;;;;;0.98;0.98;;;;;;;-5.24;96.81;100241.72;4857940;29;20727;-83
2024/01/28 00:46:25;;;;;;;0.90;0.90;;;;;;;-5.24;96.98;100241.72;4892791;29;20053;-84
2024/01/28 00:48:52;;;;;;;0.80;0.80;;;;;;;-5.24;97.36;100234.66;4895211;29;20057;-85
2024/01/28 00:51:20;;;;;;;0.80;0.80;;;;;;;-5.19;97.31;100236.94;4878457;29;20048;-80
2024/01/28 00:53:47;;;;;;;1.13;1.13;;;;;;;-5.19;97.59;100234.31;4852377;29;20061;-85
2024/01/28 00:56:17;;;;;;;0.88;0.88;;;;;;;-5.16;97.69;100231.44;4858050;29;20137;-84
2024/01/28 00:58:45;;;;;;;0.82;0.82;;;;;;;-5.15;97.70;100240.19;4858100;29;20065;-85
2024/01/28 01:01:12;;;;;;;1.05;1.05;;;;;;;-5.18;98.09;100237.78;4858062;29;20057;-84
2024/01/28 01:03:40;;;;;;;0.90;0.90;;;;;;;-5.13;98.48;100241.75;4858134;29;20057;-84
2024/01/28 01:06:10;;;;;;;1.30;1.20;;;;;;;-5.09;98.62;100239.72;4858167;29;20061;-85
2024/01/28 01:08:37;;;;;;;1.02;1.02;;;;;;;-5.05;98.67;100244.63;4857890;29;20105;-84
2024/01/28 01:11:07;;;;;;;1.00;1.00;;;;;;;-4.99;98.47;100240.69;4841798;29;20505;-82
2024/01/28 01:13:35;;;;;;;1.00;1.00;;;;;;;-4.97;98.48;100246.69;4841608;29;20057;-84
2024/01/28 01:16:03;;;;;;;0.85;0.85;;;;;;;-4.95;98.56;100243.97;4857976;29;20118;-84
2024/01/28 01:18:30;;;;;;;1.08;1.08;;;;;;;-4.94;98.78;100246.47;4857871;29;20144;-84
2024/01/28 01:21:01;;;;;;;1.00;1.00;;;;;;;-4.96;98.21;100247.53;4858090;29;20054;-84
2024/01/28 01:23:29;;;;;;;1.17;1.17;;;;;;;-4.96;98.60;100255.44;4841764;29;20061;-84
2024/01/28 01:25:57;;;;;;;1.00;1.00;;;;;;;-4.93;98.40;100250.78;4857715;29;20133;-83
2024/01/28 01:28:31;;;;;;;0.90;0.90;;;;;;;-4.92;98.43;100252.47;4858049;29;20081;-84
2024/01/28 01:31:03;;;;;;;1.00;1.00;;;;;;;-4.94;98.25;100253.53;4857846;29;20053;-86
2024/01/28 01:33:31;;;;;;;1.10;1.10;;;;;;;-4.96;98.33;100250.16;4861258;29;20417;-83
2024/01/28 01:35:58;;;;;;;1.00;1.00;;;;;;;-4.95;98.14;100257.97;4861118;29;20404;-84
2024/01/28 01:38:26;;;;;;;0.88;0.88;;;;;;;-5.01;97.81;100247.91;4861211;29;20121;-83
2024/01/28 01:40:54;;;;;;;0.70;0.70;;;;;;;-5.01;98.16;100246.09;4851994;29;20056;-84
2024/01/28 01:43:22;;;;;;;0.93;0.93;;;;;;;-4.98;98.49;100255.56;4898563;29;20064;-82
2024/01/28 01:45:49;;;;;;;1.00;1.00;;;;;;;-4.97;98.32;100257.22;4898649;29;20071;-83
2024/01/28 01:48:17;;;;;;;1.08;1.08;;;;;;;-4.94;98.28;100250.91;4881704;29;20144;-84
2024/01/28 01:50:44;;;;;;;1.00;1.00;;;;;;;-4.96;98.08;100247.53;4855717;29;20061;-85
2024/01/28 01:53:13;;;;;;;0.95;0.95;;;;;;;-4.99;98.02;100251.22;4844746;29;20107;-87
2024/01/28 01:55:41;;;;;;;0.93;0.93;;;;;;;-4.96;98.08;100247.53;4860939;29;20569;-86
2024/01/28 01:58:10;;;;;;;0.70;0.70;;;;;;;-5.01;97.80;100254.00;4860855;29;20069;-87
2024/01/28 02:00:38;;;;;;;0.80;0.80;;;;;;;-4.97;98.09;100256.41;4841027;29;20065;-86
2024/01/28 02:03:05;;;;;;;1.00;1.00;;;;;;;-4.98;97.74;100255.56;4842040;29;20103;-86
2024/01/28 02:05:33;;;;;;;1.10;1.10;;;;;;;-4.96;97.68;100261.56;4842524;29;20050;-83
2024/01/28 02:08:00;;;;;;;0.90;0.90;;;;;;;-4.99;97.94;100260.94;4842366;29;20092;-86
2024/01/28 02:10:31;;;;;;;1.00;1.00;;;;;;;-4.97;97.79;100259.88;4842505;29;20057;-86
2024/01/28 02:12:58;;;;;;;0.93;0.93;;;;;;;-5.00;97.83;100265.38;4842796;29;20080;-83
2024/01/28 02:15:25;;;;;;;0.95;0.95;;;;;;;-5.02;98.04;100272.53;4842238;29;20089;-84
2024/01/28 02:17:55;;;;;;;0.90;0.90;;;;;;;-5.04;97.79;100270.03;4841233;29;20458;-84
2024/01/28 02:20:26;;;;;;;0.88;0.88;;;;;;;-5.04;97.88;100267.41;4842098;29;20053;-83
2024/01/28 02:22:56;;;;;;;0.88;0.88;;;;;;;-5.03;97.98;100276.97;4841981;29;20134;-83
2024/01/28 02:25:23;;;;;;;1.10;1.10;;;;;;;-5.03;98.04;100270.88;4842247;29;20053;-83
2024/01/28 02:27:53;;;;;;;1.00;1.00;;;;;;;-4.99;98.17;100282.00;4841772;29;20160;-83
2024/01/28 02:30:27;;;;;;;0.90;0.90;;;;;;;-4.95;98.13;100280.81;4825474;29;20353;-84
2024/01/28 02:32:54;;;;;;;0.85;0.85;;;;;;;-4.92;97.85;100289.31;4840865;29;20518;-82
2024/01/28 02:35:21;;;;;;;0.93;0.93;;;;;;;-4.96;97.62;100287.91;4841976;29;20152;-81
2024/01/28 02:37:52;;;;;;;1.00;1.00;;;;;;;-5.01;97.63;100293.50;4858829;29;20057;-83
2024/01/28 02:40:20;;;;;;;0.90;0.90;;;;;;;-4.97;97.87;100291.47;4878776;29;20139;-85
2024/01/28 02:42:50;;;;;;;1.00;1.00;;;;;;;-4.98;97.40;100297.69;4878705;29;20445;-84
2024/01/28 02:45:18;;;;;;;0.90;0.90;;;;;;;-5.03;97.08;100299.81;4878250;29;20508;-84
2024/01/28 02:47:48;;;;;;;0.80;0.80;;;;;;;-5.11;96.86;100302.19;4840809;29;20114;-83
2024/01/28 02:50:18;;;;;;;1.10;1.10;;;;;;;-5.12;96.67;100308.38;4840498;29;20110;-86
2024/01/28 02:52:48;;;;;;;1.00;1.00;;;;;;;-5.19;96.39;100307.16;4841527;29;20061;-86
2024/01/28 02:55:18;;;;;;;0.90;0.90;;;;;;;-5.26;96.46;100307.59;4841445;29;20057;-87
2024/01/28 02:57:49;;;;;;;0.90;0.90;;;;;;;-5.19;96.79;100315.03;4841407;29;20425;-86
2024/01/28 03:00:17;;;;;;;1.00;1.00;;;;;;;-5.17;96.42;100315.78;4825112;29;20058;-88
2024/01/28 03:02:44;;;;;;;1.02;1.02;;;;;;;-5.21;96.91;100314.34;4840100;29;20062;-84
2024/01/28 03:05:11;;;;;;;0.85;0.85;;;;;;;-5.18;96.90;100319.38;4840158;29;20054;-83
2024/01/28 03:07:39;;;;;;;0.80;0.80;;;;;;;-5.13;97.12;100322.50;4841057;29;20585;-82
2024/01/28 03:10:10;;;;;;;0.90;0.90;;;;;;;-5.08;96.96;100325.66;4841481;29;20065;-83
2024/01/28 03:12:37;;;;;;;0.90;0.90;;;;;;;-5.08;96.84;100326.47;4824736;29;20068;-83
2024/01/28 03:15:05;;;;;;;0.90;0.90;;;;;;;-5.11;96.75;100321.44;4840320;29;20145;-82
2024/01/28 03:17:33;;;;;;;0.88;0.88;;;;;;;-5.11;96.41;100324.09;4841030;29;20060;-82
2024/01/28 03:20:00;;;;;;;0.88;0.88;;;;;;;-5.13;96.61;100330.41;4839941;29;20072;-82
2024/01/28 03:22:32;;;;;;;0.90;0.90;;;;;;;-5.11;96.45;100331.97;4840735;29;20088;-83
2024/01/28 03:24:59;;;;;;;1.00;1.00;;;;;;;-5.12;96.24;100335.53;4840080;29;20110;-82
2024/01/28 03:27:33;;;;;;;0.95;0.95;;;;;;;-5.18;96.17;100336.00;4840891;29;20074;-83
2024/01/28 03:30:04;;;;;;;1.00;1.00;;;;;;;-5.15;96.31;100334.94;4840576;29;20054;-83
2024/01/28 03:32:32;;;;;;;1.10;1.10;;;;;;;-5.16;96.10;100338.53;4839302;29;20054;-83
2024/01/28 03:35:00;;;;;;;1.00;1.00;;;;;;;-5.23;95.95;100323.16;4872820;29;20109;-83
2024/01/28 03:37:30;;;;;;;0.75;0.75;;;;;;;-5.12;96.05;100330.28;4877689;29;20152;-83
2024/01/28 03:39:58;;;;;;;0.80;0.80;;;;;;;-5.11;95.68;100331.16;4877498;29;20155;-83
2024/01/28 03:42:25;;;;;;;0.85;0.85;;;;;;;-5.16;95.54;100333.28;4862649;29;20540;-83
2024/01/28 03:44:52;;;;;;;0.90;0.90;;;;;;;-5.23;95.46;100333.69;4840606;29;20072;-83
2024/01/28 03:47:20;;;;;;;0.90;0.90;;;;;;;-5.25;95.18;100338.22;4840699;29;20470;-84
2024/01/28 03:49:53;;;;;;;0.90;0.90;;;;;;;-5.27;95.39;100337.50;4839583;29;20057;-84
2024/01/28 03:52:21;;;;;;;0.82;0.82;;;;;;;-5.28;95.34;100335.81;4840487;29;20050;-82
2024/01/28 03:54:49;;;;;;;1.00;1.00;;;;;;;-5.26;95.61;100344.44;4838743;29;20060;-81
2024/01/28 03:57:16;;;;;;;0.85;0.85;;;;;;;-5.24;95.45;100347.81;4840092;29;20110;-84
2024/01/28 03:59:44;;;;;;;0.90;0.90;;;;;;;-5.19;95.63;100349.25;4850773;29;20061;-85
2024/01/28 04:02:14;;;;;;;0.90;0.90;;;;;;;-5.20;95.74;100358.13;4842073;29;20054;-83
2024/01/28 04:04:42;;;;;;;1.00;1.00;;;;;;;-5.18;95.79;100353.59;4841950;29;20153;-84
2024/01/28 04:07:09;;;;;;;0.80;0.80;;;;;;;-5.12;95.78;100356.59;4858782;29;20064;-83
2024/01/28 04:09:38;;;;;;;1.00;1.00;;;;;;;-5.05;95.92;100362.28;4858678;29;20176;-82
2024/01/28 04:12:05;;;;;;;0.93;0.93;;;;;;;-5.08;95.54;100359.88;4858664;29;20054;-83
2024/01/28 04:14:33;;;;;;;0.98;0.98;;;;;;;-5.04;95.66;100369.22;4858649;29;20058;-84
2024/01/28 04:17:00;;;;;;;1.10;1.10;;;;;;;-5.15;95.46;100367.38;4841855;29;20056;-80
2024/01/28 04:19:28;;;;;;;1.13;1.13;;;;;;;-5.15;95.80;100367.38;4858430;29;20114;-80
2024/01/28 04:21:55;;;;;;;1.00;1.00;;;;;;;-5.15;95.85;100366.53;4858517;29;20068;-81
2024/01/28 04:24:25;;;;;;;1.17;1.15;;;;;;;-5.15;95.84;100371.78;4858214;29;20057;-80
2024/01/28 04:26:53;;;;;;;0.90;0.90;;;;;;;-5.11;96.01;100378.53;4858330;29;20084;-81
2024/01/28 04:29:21;;;;;;;0.88;0.88;;;;;;;-5.13;95.97;100375.16;4860791;29;20064;-80
2024/01/28 04:31:53;;;;;;;1.00;1.00;;;;;;;-5.10;96.12;100373.13;4895706;29;20052;-81
2024/01/28 04:34:22;;;;;;;1.10;1.10;;;;;;;-5.08;95.89;100388.84;4895486;29;20583;-81
2024/01/28 04:36:52;;;;;;;0.80;0.80;;;;;;;-5.12;95.85;100387.38;4865209;29;20140;-83
2024/01/28 04:39:20;;;;;;;0.93;0.93;;;;;;;-5.10;96.13;100391.56;4860277;29;20145;-83
2024/01/28 04:41:48;;;;;;;0.90;0.90;;;;;;;-5.06;96.18;100393.03;4858214;29;20056;-82
2024/01/28 04:44:15;;;;;;;0.77;0.77;;;;;;;-5.03;96.05;100389.34;4857980;29;20063;-83
2024/01/28 04:46:45;;;;;;;0.80;0.80;;;;;;;-5.05;96.35;100388.59;4857933;29;20190;-83
2024/01/28 04:49:13;;;;;;;0.90;0.90;;;;;;;-5.08;96.37;100392.31;4857945;29;20061;-82
2024/01/28 04:51:41;;;;;;;0.90;0.90;;;;;;;-5.09;96.39;100402.94;4857837;29;20477;-82
2024/01/28 04:54:08;;;;;;;1.02;1.02;;;;;;;-5.08;96.61;100400.19;4857805;29;20433;-86
2024/01/28 04:56:35;;;;;;;1.00;1.00;;;;;;;-5.03;96.89;100408.59;4826972;29;20089;-87
2024/01/28 04:59:04;;;;;;;1.00;1.00;;;;;;;-5.02;96.54;100401.53;4841079;29;20406;-86
2024/01/28 05:01:33;;;;;;;0.95;0.95;;;;;;;-5.02;96.54;100405.00;4857556;29;20580;-89
2024/01/28 05:04:04;;;;;;;0.80;0.80;;;;;;;-5.07;96.66;100401.03;4857642;29;20064;-85
2024/01/28 05:06:35;;;;;;;0.70;0.70;;;;;;;-5.08;96.90;100402.00;4858476;29;20106;-83
2024/01/28 05:11:54;;;;;;;0.85;0.85;;;;;;;-5.04;96.36;100412.22;4844940;29;20073;-82
2024/01/28 05:14:28;;;;;;;0.82;0.82;;;;;;;-5.02;96.49;100425.25;4862054;29;20160;-82
2024/01/28 05:16:58;;;;;;;1.10;1.10;;;;;;;-5.06;96.53;100422.00;4851281;29;20140;-91
2024/01/28 05:19:26;;;;;;;1.10;1.10;;;;;;;-5.03;96.80;100420.94;4864514;29;20080;-88
2024/01/28 05:21:53;;;;;;;0.80;0.80;;;;;;;-4.97;96.39;100425.75;4864260;29;20148;-87
2024/01/28 05:24:21;;;;;;;0.80;0.80;;;;;;;-4.98;96.30;100429.34;4859482;29;20073;-87
2024/01/28 05:26:53;;;;;;;1.10;1.10;;;;;;;-4.94;96.16;100436.06;4872735;29;20063;-85
2024/01/28 05:29:21;;;;;;;1.13;1.13;;;;;;;-4.92;95.86;100435.97;4857574;29;20084;-89
2024/01/28 05:31:48;;;;;;;1.00;1.00;;;;;;;-4.96;95.89;100435.34;4865867;29;20048;-89
2024/01/28 05:34:21;;;;;;;0.85;0.85;;;;;;;-4.99;95.75;100439.97;4870665;29;20096;-85
2024/01/28 05:36:54;;;;;;;0.93;0.93;;;;;;;-5.04;95.95;100445.56;4867458;29;20428;-87
2024/01/28 05:39:25;;;;;;;1.00;1.00;;;;;;;-5.08;95.77;100442.31;4867860;29;20060;-90
2024/01/28 05:41:52;;;;;;;0.90;0.90;;;;;;;-5.07;95.96;100444.00;4851457;29;20137;-89
2024/01/28 05:44:24;;;;;;;0.98;0.98;;;;;;;-5.04;95.97;100448.19;4840032;29;20402;-88
2024/01/28 05:46:51;;;;;;;0.80;0.80;;;;;;;-5.08;95.94;100444.13;4853513;29;20056;-91
2024/01/28 05:49:28;;;;;;;0.82;0.82;;;;;;;-4.98;96.00;100442.50;4863267;29;20457;-84
2024/01/28 05:52:16;;;;;;;0.87;0.87;;;;;;;-5.01;95.62;100437.47;4865934;29;20444;-85
2024/01/28 05:54:51;;;;;;;0.85;0.85;;;;;;;-5.00;95.54;100447.03;4863596;29;20144;-84
2024/01/28 05:57:34;;;;;;;0.90;0.90;;;;;;;-4.98;95.63;100444.31;4845532;29;20080;-85
2024/01/28 06:00:06;;;;;;;0.90;0.90;;;;;;;-4.98;95.64;100445.16;4844605;29;20467;-84
2024/01/28 06:02:39;;;;;;;0.98;0.98;;;;;;;-4.93;95.30;100450.94;4852103;29;20069;-76
2024/01/28 06:05:09;;;;;;;1.02;1.02;;;;;;;-4.90;95.42;100463.03;4847079;29;20140;-79
2024/01/28 06:07:38;;;;;;;0.98;0.98;;;;;;;-4.88;95.13;100464.59;4869729;29;20057;-79
2024/01/28 06:10:12;;;;;;;0.95;0.95;;;;;;;-4.85;94.76;100468.81;4869762;29;20211;-78
2024/01/28 06:12:42;;;;;;;0.90;0.90;;;;;;;-4.83;94.83;100473.00;4861420;29;20049;-80
2024/01/28 06:15:32;;;;;;;0.90;0.90;;;;;;;-4.84;94.34;100471.31;4852427;29;20057;-76
2024/01/28 06:18:02;;;;;;;1.00;1.00;;;;;;;-4.96;93.68;100464.31;4868556;29;20058;-79
2024/01/28 06:20:35;;;;;;;1.00;1.00;;;;;;;-4.99;93.73;100479.47;4864459;29;20083;-82
2024/01/28 06:23:14;;;;;;;0.80;0.80;;;;;;;-4.98;93.96;100468.00;4871250;29;20061;-83
2024/01/28 06:25:47;;;;;;;0.95;0.95;;;;;;;-5.01;93.66;100474.34;4851278;29;20057;-88
2024/01/28 06:28:24;;;;;;;0.93;0.93;;;;;;;-4.98;93.46;100484.66;4867974;29;20057;-84
2024/01/28 06:31:23;;;;;;;1.10;1.10;;;;;;;-5.03;93.12;100479.69;4848084;29;20088;-81
2024/01/28 06:33:53;;;;;;;1.10;1.10;;;;;;;-4.98;93.17;100489.06;4857947;29;20152;-81
2024/01/28 06:36:22;;;;;;;0.85;0.85;;;;;;;-4.92;93.15;100488.63;4850886;29;20057;-78
2024/01/28 06:38:51;;;;;;;0.90;0.90;;;;;;;-5.03;92.79;100482.34;4858128;29;20136;-79
2024/01/28 06:41:24;;;;;;;1.10;1.10;;;;;;;-4.96;92.98;100495.06;4863432;29;20052;-81
2024/01/28 06:44:21;;;;;;;1.00;1.00;;;;;;;-5.03;92.71;100498.13;4865869;29;20059;-87
2024/01/28 06:46:55;;;;;;;1.10;1.10;;;;;;;-5.13;92.61;100494.47;4861129;29;20109;-77
2024/01/28 06:49:25;;;;;;;1.05;1.05;;;;;;;-5.10;92.77;100499.50;4868698;29;20092;-77
2024/01/28 06:51:53;;;;;;;1.17;1.15;;;;;;;-5.05;92.82;100507.91;4821589;29;20105;-79
2024/01/28 06:54:28;;;;;;;1.00;1.00;;;;;;;-5.07;92.89;100511.63;4513157;29;10000682;-78
2024/01/28 06:57:01;;;;;;;1.08;1.08;;;;;;;-5.06;92.71;100513.31;4859820;29;20061;-74
2024/01/28 06:59:29;;;;;;;1.13;1.13;;;;;;;-5.02;93.04;100522.66;4859784;29;20090;-78
2024/01/28 07:01:56;;;;;;;1.10;1.10;;;;;;;-4.96;92.65;100510.84;4862771;29;20436;-79
2024/01/28 07:04:24;;;;;;;1.02;1.02;;;;;;;-4.91;92.49;100506.97;4874327;29;20053;-77
2024/01/28 07:06:51;;;;;;;1.10;1.10;;;;;;;-4.95;92.22;100509.91;4846770;29;20064;-78
2024/01/28 07:09:19;;;;;;;0.75;0.75;;;;;;;-4.90;92.01;100513.91;4874006;29;20939;-82
2024/01/28 07:11:47;;;;;;;1.10;1.10;;;;;;;-4.89;91.88;100509.47;4857743;29;20135;-81
2024/01/28 07:14:14;;;;;;;1.10;1.10;;;;;;;-4.92;91.82;100515.81;4874345;29;20080;-79
2024/01/28 07:16:41;;;;;;;1.00;1.00;;;;;;;-4.94;91.52;100515.06;4857270;29;20111;-80
2024/01/28 07:19:11;;;;;;;0.82;0.82;;;;;;;-4.91;91.63;100521.91;4874043;29;20049;-81
2024/01/28 07:21:42;;;;;;;1.00;1.00;;;;;;;-4.92;91.72;100523.69;4858291;29;20088;-79
2024/01/28 07:24:09;;;;;;;1.00;1.00;;;;;;;-4.97;91.80;100525.81;4874269;29;20272;-83
2024/01/28 07:26:37;;;;;;;1.00;1.00;;;;;;;-4.96;91.91;100522.25;4873892;29;20596;-78
2024/01/28 07:29:04;;;;;;;0.80;0.80;;;;;;;-4.96;91.79;100529.28;4823789;29;20148;-78
2024/01/28 07:31:31;;;;;;;0.90;0.90;;;;;;;-4.92;91.78;100531.59;4855655;29;20520;-82
2024/01/28 07:33:59;;;;;;;1.10;1.10;;;;;;;-4.90;91.68;100544.66;4855861;29;20069;-83
2024/01/28 07:36:29;;;;;;;1.10;1.10;;;;;;;-4.85;91.95;100529.38;4839170;29;20533;-83
2024/01/28 07:38:57;;;;;;;1.13;1.13;;;;;;;-4.74;91.89;100539.16;4875539;29;20112;-82
2024/01/28 07:41:51;;;;;;;1.10;1.10;;;;;;;-4.68;91.59;100534.31;4892581;29;20056;-81
2024/01/28 07:44:27;;;;;;;1.00;1.00;;;;;;;-4.75;91.64;100513.78;4852369;29;20072;-78
2024/01/28 07:47:30;;;;;;;1.08;1.08;;;;;;;-4.57;91.52;100542.28;4840061;29;20058;-76
2024/01/28 07:50:13;;;;;;;0.95;0.95;;;;;;;-4.65;91.15;100534.09;4830288;29;20062;-77
2024/01/28 07:53:12;;;;;;;1.02;1.02;;;;;;;-4.62;90.86;100528.59;4826753;29;20144;-78
2024/01/28 07:55:51;;;;;;;0.85;0.85;;;;;;;-4.45;90.56;100543.19;4852473;29;20065;-78
2024/01/28 07:58:27;;;;;;;0.90;0.90;;;;;;;-4.44;90.49;100550.13;4837751;29;20085;-78
2024/01/28 08:01:02;;;;;;;0.80;0.80;;;;;;;-4.51;90.21;100534.88;4836365;29;20061;-76
2024/01/28 08:04:04;;;;;;;0.90;0.90;;;;;;;-4.35;90.11;100551.28;4838589;29;20097;-81
2024/01/28 08:06:45;;;;;;;0.85;0.85;;;;;;;-4.32;89.59;100551.06;4849148;29;20052;-85
2024/01/28 08:10:11;;;;;;;0.90;0.90;;;;;;;-4.40;89.18;100558.69;4811532;29;20077;-78
2024/01/28 08:13:04;;;;;;;0.85;0.85;;;;;;;-4.41;89.45;100556.97;4815878;29;20167;-81
2024/01/28 08:15:33;;;;;;;1.00;1.00;;;;;;;-4.34;89.57;100552.13;4815603;29;20154;-81
2024/01/28 08:18:11;;;;;;;0.85;0.85;;;;;;;-4.24;89.45;100561.03;4761372;30;20059;-79
2024/01/28 08:20:39;;;;;;;0.90;0.90;;;;;;;-4.21;89.51;100560.81;4768315;29;20566;-79
2024/01/28 08:23:07;;;;;;;0.90;0.90;;;;;;;-4.21;89.96;100560.81;4799997;29;20054;-83
2024/01/28 08:25:34;;;;;;;0.85;0.85;;;;;;;-4.19;90.04;100564.19;4800344;29;20066;-82
2024/01/28 08:28:07;;;;;;;1.00;1.00;;;;;;;-4.18;90.27;100568.50;4785133;29;20637;-79
2024/01/28 08:30:35;;;;;;;0.90;0.90;;;;;;;-4.13;90.25;100566.38;4785744;29;20130;-80
2024/01/28 08:33:03;;;;;;;1.00;1.00;;;;;;;-4.04;89.85;100573.63;4800021;29;20514;-79
2024/01/28 08:35:32;;;;;;;0.80;0.80;;;;;;;-3.96;89.70;100570.41;4815290;29;20147;-79
2024/01/28 08:38:00;;;;;;;1.00;1.00;;;;;;;-3.88;89.20;100569.84;4817346;29;20058;-79
2024/01/28 08:40:27;;;;;;;1.10;1.10;;;;;;;-3.97;88.79;100569.56;4817960;29;20209;-79
2024/01/28 08:42:54;;;;;;;1.08;1.08;;;;;;;-3.92;88.23;100579.78;4832555;29;20141;-79
2024/01/28 08:45:22;;;;;;;1.10;1.10;;;;;;;-4.02;88.02;100581.44;4833468;29;20060;-84
2024/01/28 08:48:10;;;;;;;1.10;1.10;;;;;;;-4.00;88.51;100587.41;4833453;29;20617;-82
2024/01/28 08:50:42;;;;;;;1.02;1.02;;;;;;;-3.97;88.65;100585.41;4872397;29;20053;-81
2024/01/28 08:53:09;;;;;;;1.00;1.00;;;;;;;-3.86;88.42;100579.31;4872592;29;20053;-79
2024/01/28 08:55:36;;;;;;;1.23;1.20;;;;;;;-3.80;88.42;100588.59;4855821;29;20053;-81
2024/01/28 08:58:04;;;;;;;0.90;0.90;;;;;;;-3.71;87.52;100593.19;4873251;29;20440;-81
2024/01/28 09:00:34;;;;;;;0.88;0.88;;;;;;;-3.84;86.83;100589.78;4872512;29;20169;-80
2024/01/28 09:03:04;;;;;;;0.90;0.90;;;;;;;-3.99;86.20;100592.56;4872646;29;20057;-82
2024/01/28 09:05:32;;;;;;;0.80;0.80;;;;;;;-4.14;86.31;100596.34;4855611;29;20140;-80
2024/01/28 09:08:00;;;;;;;1.00;1.00;;;;;;;-4.25;86.55;100588.38;4861924;29;20062;-78
2024/01/28 09:10:27;;;;;;;0.90;0.90;;;;;;;-4.31;87.12;100600.19;4837597;29;20221;-79
2024/01/28 09:12:55;;;;;;;1.10;1.10;;;;;;;-4.34;87.74;100594.28;4853948;29;20140;-79
2024/01/28 09:15:23;;;;;;;1.05;1.05;;;;;;;-4.28;87.97;100599.13;4854141;29;20057;-79
2024/01/28 09:17:52;;;;;;;0.90;0.90;;;;;;;-4.32;87.90;100598.50;4837546;29;20604;-76
2024/01/28 09:20:19;;;;;;;0.80;0.80;;;;;;;-4.39;87.76;100608.63;4853817;29;20057;-76
2024/01/28 09:22:48;;;;;;;1.00;1.00;;;;;;;-4.46;87.99;100612.66;4853951;29;20053;-77
2024/01/28 09:25:15;;;;;;;1.02;1.02;;;;;;;-4.43;88.52;100611.59;4853581;29;20129;-81
2024/01/28 09:27:48;;;;;;;1.00;1.00;;;;;;;-4.45;88.85;100614.34;4837334;29;20066;-80
2024/01/28 09:30:34;;;;;;;0.80;0.80;;;;;;;-4.42;88.98;100618.56;4840202;29;20136;-80
2024/01/28 09:33:03;;;;;;;1.17;1.17;;;;;;;-4.45;88.84;100619.63;4853763;29;20144;-80
2024/01/28 09:35:34;;;;;;;0.90;0.90;;;;;;;-4.39;89.05;100616.53;4853963;29;20045;-76
2024/01/28 09:38:02;;;;;;;1.00;1.00;;;;;;;-4.37;89.08;100613.81;4866227;29;20057;-77
2024/01/28 09:40:29;;;;;;;1.00;1.00;;;;;;;-4.29;89.01;100613.25;4865230;29;20053;-75
2024/01/28 09:43:05;;;;;;;1.13;1.13;;;;;;;-4.31;89.12;100618.63;4840844;29;20085;-81
2024/01/28 09:45:35;;;;;;;1.08;1.08;;;;;;;-4.28;88.85;100628.13;4837912;29;20053;-81
2024/01/28 09:48:03;;;;;;;0.85;0.85;;;;;;;-4.37;88.72;100632.25;4837211;29;20144;-74
2024/01/28 09:50:31;;;;;;;1.00;1.00;;;;;;;-4.51;88.77;100614.78;4856892;29;20049;-77
2024/01/28 09:53:02;;;;;;;1.00;1.00;;;;;;;-4.47;88.92;100624.16;4860312;29;20053;-77
2024/01/28 09:55:37;;;;;;;0.85;0.85;;;;;;;-4.44;88.57;100616.03;4852419;29;20549;-79
2024/01/28 09:58:05;;;;;;;0.90;0.90;;;;;;;-4.42;88.41;100608.84;4866591;29;20137;-77
2024/01/28 10:00:33;;;;;;;0.80;0.80;;;;;;;-4.34;88.52;100616.22;4865035;29;20136;-76
2024/01/28 10:03:04;;;;;;;1.10;1.10;;;;;;;-4.30;88.53;100607.16;4865031;29;20068;-77
2024/01/28 10:05:32;;;;;;;1.02;1.02;;;;;;;-4.27;88.04;100612.19;4861075;29;20556;-78
2024/01/28 10:08:04;;;;;;;1.10;1.10;;;;;;;-4.24;88.29;100611.13;4865937;29;20048;-77
2024/01/28 10:10:35;;;;;;;1.10;1.10;;;;;;;-4.24;88.21;100611.13;4864929;29;20121;-77
2024/01/28 10:13:03;;;;;;;1.10;1.10;;;;;;;-4.31;88.49;100604.63;4849412;29;20045;-76
2024/01/28 10:15:31;;;;;;;0.80;0.80;;;;;;;-4.30;88.64;100616.81;4851190;29;20051;-77
2024/01/28 10:17:59;;;;;;;1.00;1.00;;;;;;;-4.28;88.76;100615.78;4864540;29;20061;-76
2024/01/28 10:20:30;;;;;;;0.93;0.93;;;;;;;-4.31;89.00;100615.16;4865532;29;20052;-77
2024/01/28 10:23:00;;;;;;;0.90;0.90;;;;;;;-4.34;89.67;100608.31;4861888;29;20056;-78
2024/01/28 10:25:27;;;;;;;1.00;1.00;;;;;;;-4.27;89.96;100614.84;4848738;29;20045;-78
2024/01/28 10:27:54;;;;;;;1.10;1.10;;;;;;;-4.20;89.56;100608.19;4866164;29;20055;-77
2024/01/28 10:30:22;;;;;;;1.02;1.02;;;;;;;-4.13;89.48;100613.81;4866330;29;20054;-77
2024/01/28 10:32:50;;;;;;;1.00;1.00;;;;;;;-4.10;89.01;100613.63;4865000;29;20159;-78
2024/01/28 10:35:17;;;;;;;0.95;0.95;;;;;;;-4.16;88.61;100606.97;4866901;29;20060;-76
2024/01/28 10:37:51;;;;;;;1.10;1.10;;;;;;;-4.16;88.63;100616.69;4870766;29;20149;-77
2024/01/28 10:40:19;;;;;;;1.25;1.20;;;;;;;-4.14;88.63;100613.00;4864613;29;20058;-78
2024/01/28 10:42:49;;;;;;;0.98;0.98;;;;;;;-4.09;88.33;100615.31;4860899;29;20058;-78
2024/01/28 10:45:20;;;;;;;1.10;1.10;;;;;;;-4.01;88.63;100612.09;4856328;29;20117;-77
2024/01/28 10:47:55;;;;;;;0.80;0.80;;;;;;;-3.95;88.50;100604.59;4855142;29;20140;-77
2024/01/28 10:50:28;;;;;;;0.95;0.95;;;;;;;-3.89;88.74;100615.66;4867489;29;20080;-79
2024/01/28 10:52:56;;;;;;;1.10;1.10;;;;;;;-3.92;87.80;100622.84;4851846;29;20049;-76
2024/01/28 10:55:25;;;;;;;1.00;1.00;;;;;;;-3.88;87.54;100622.59;4861489;29;20077;-76
2024/01/28 10:57:54;;;;;;;1.00;1.00;;;;;;;-3.93;86.78;100630.84;4866796;29;20513;-77
2024/01/28 11:00:24;;;;;;;1.00;1.00;;;;;;;-4.03;86.50;100625.41;4848973;29;20313;-75
2024/01/28 11:02:54;;;;;;;1.00;1.00;;;;;;;-4.08;86.57;100631.97;4840643;29;20079;-77
2024/01/28 11:05:22;;;;;;;0.70;0.70;;;;;;;-4.18;86.43;100624.72;4847371;29;20406;-77
2024/01/28 11:07:51;;;;;;;1.00;1.00;;;;;;;-4.20;86.30;100628.44;4850485;29;20073;-77
2024/01/28 11:10:21;;;;;;;1.10;1.10;;;;;;;-4.23;86.49;100631.25;4847764;29;20573;-76
2024/01/28 11:12:48;;;;;;;1.40;1.30;;;;;;;-4.19;86.33;100630.09;4849951;29;20065;-76
2024/01/28 11:15:19;;;;;;;0.90;0.90;;;;;;;-4.19;86.13;100623.03;4842621;29;20558;-76
2024/01/28 11:17:47;;;;;;;0.93;0.93;;;;;;;-4.06;86.32;100628.25;4839366;29;20118;-77
2024/01/28 11:20:16;;;;;;;1.13;1.13;;;;;;;-4.07;85.85;100634.50;4840535;29;20153;-77
2024/01/28 11:22:52;;;;;;;1.15;1.13;;;;;;;-4.19;85.65;100635.38;4842461;29;20109;-77
2024/01/28 11:25:24;;;;;;;1.05;1.05;;;;;;;-4.18;85.43;100642.31;4839870;29;20050;-77
2024/01/28 11:28:06;;;;;;;0.95;0.95;;;;;;;-4.20;85.29;100644.25;4845934;29;20065;-75
2024/01/28 11:30:40;;;;;;;1.10;1.10;;;;;;;-4.23;85.52;100640.03;4836134;29;20058;-77
2024/01/28 11:33:09;;;;;;;1.00;1.00;;;;;;;-4.24;85.39;100648.03;4844204;29;20129;-77
2024/01/28 11:35:39;;;;;;;0.90;0.90;;;;;;;-4.26;85.41;100642.88;4845078;29;20060;-79
2024/01/28 11:38:09;;;;;;;0.90;0.90;;;;;;;-4.19;85.30;100645.91;4842587;29;20054;-75
2024/01/28 11:40:38;;;;;;;1.10;1.10;;;;;;;-4.22;85.06;100646.16;4840439;29;20060;-75
2024/01/28 11:43:07;;;;;;;0.98;0.98;;;;;;;-4.17;84.77;100651.94;4845680;29;20056;-74